CheckWX is a tool to help pilots better visualize weather data.  It is not intended as a substitute for an official pre-flight weather briefing.

10:50:11 UTC

LJLJ METAR
Ljubljana Jože Pučnik Airport
Ljubljana, Slovenia
Current

20 mins ago

LJLJ 171030Z VRB02KT 9999 FEW040 SCT250 22/15 Q1018 NOSIG
Observed
Aug-17 @ 10:30 UTC
Wind
  • Variable at 2 KTS
Visibility
10,000+ meters
Flight Rules
VFR
Cloud Levels
  • Few at 4,000' AGL
  • Scattered at 25,000' AGL
Temperature
22°C / 72°F
Dewpoint
15°C / 59°F
Humidity
65%
Altimeter
30.06" Hg
Pressure
1017.92 hPa
Previous

50 mins ago

LJLJ 171000Z 06003KT 360V140 9999 FEW040 BKN250 22/15 Q1018 NOSIG
Observed
Aug-17 @ 10:00 UTC
Wind
  • 060° at 3 KTS
Visibility
10,000+ meters
Flight Rules
VFR
Cloud Levels
  • Few at 4,000' AGL
  • Broken at 25,000' AGL
Temperature
22°C / 72°F
Dewpoint
15°C / 59°F
Humidity
65%
Altimeter
30.06" Hg
Pressure
1017.92 hPa
Previous

1 hour ago

LJLJ 170930Z 07003KT 010V120 9999 FEW040 BKN250 21/15 Q1018 NOSIG
Observed
Aug-17 @ 09:30 UTC
Wind
  • 070° at 3 KTS
Visibility
10,000+ meters
Flight Rules
VFR
Cloud Levels
  • Few at 4,000' AGL
  • Broken at 25,000' AGL
Temperature
21°C / 70°F
Dewpoint
15°C / 59°F
Humidity
69%
Altimeter
30.06" Hg
Pressure
1017.92 hPa